createdAt,value
2018-06-01T00:00:19.112Z,23.00
2018-06-01T00:02:45.328Z,24.13
2018-06-01T00:05:11.594Z,26.47
2018-06-01T00:07:37.811Z,22.50
2018-06-01T00:10:04.057Z,23.17
2018-06-01T00:12:30.252Z,22.63
2018-06-01T00:14:56.469Z,21.23
2018-06-01T00:17:22.681Z,22.50
2018-06-01T00:19:48.887Z,20.43
2018-06-01T00:22:15.845Z,20.90
2018-06-01T00:24:42.831Z,22.33
2018-06-01T00:27:09.060Z,20.90
2018-06-01T00:29:35.289Z,20.90
2018-06-01T00:32:01.516Z,22.57
2018-06-01T00:34:27.771Z,23.33
2018-06-01T00:36:54.010Z,23.00
2018-06-01T00:39:20.221Z,23.83
2018-06-01T00:41:46.511Z,23.97
2018-06-01T00:44:12.813Z,22.87
2018-06-01T00:46:39.028Z,23.87
2018-06-01T00:49:05.978Z,24.03
2018-06-01T00:51:32.951Z,25.00
2018-06-01T00:53:59.131Z,23.27
2018-06-01T00:56:25.333Z,24.23
2018-06-01T00:58:51.550Z,25.03
2018-06-01T01:01:17.805Z,23.73
2018-06-01T01:03:44.020Z,23.30
2018-06-01T01:06:13.060Z,23.77
2018-06-01T01:08:40.193Z,22.87
2018-06-01T01:11:07.204Z,22.13
2018-06-01T01:13:33.415Z,23.43
2018-06-01T01:15:59.624Z,22.53
2018-06-01T01:18:26.580Z,20.80
2018-06-01T01:20:52.832Z,22.27
2018-06-01T01:23:19.109Z,23.67
2018-06-01T01:25:46.131Z,23.50
2018-06-01T01:28:13.058Z,22.13
2018-06-01T01:30:39.309Z,22.27
2018-06-01T01:33:05.521Z,22.10
2018-06-01T01:35:31.749Z,22.60
2018-06-01T01:37:57.932Z,24.03
2018-06-01T01:40:24.176Z,22.03
2018-06-01T01:42:50.388Z,23.27
2018-06-01T01:45:16.679Z,22.83
2018-06-01T01:47:42.904Z,23.43
2018-06-01T01:50:09.144Z,23.07
2018-06-01T01:52:36.119Z,21.53
2018-06-01T01:55:02.348Z,21.07
2018-06-01T01:57:28.586Z,24.47
2018-06-01T01:59:54.919Z,21.63
2018-06-01T02:02:21.221Z,24.17
2018-06-01T02:04:47.432Z,21.77
2018-06-01T02:07:14.391Z,23.87
2018-06-01T02:09:41.337Z,23.43
2018-06-01T02:12:07.552Z,25.33
2018-06-01T02:14:34.511Z,25.20
2018-06-01T02:17:00.761Z,25.07
2018-06-01T02:19:26.968Z,25.37
2018-06-01T02:21:53.181Z,24.37
2018-06-01T02:24:20.149Z,24.87
2018-06-01T02:26:46.344Z,24.53
2018-06-01T02:29:12.544Z,24.50
2018-06-01T02:31:38.733Z,25.37
2018-06-01T02:34:05.015Z,26.20
2018-06-01T02:36:31.241Z,24.30
2018-06-01T02:38:58.440Z,24.90
2018-06-01T02:41:24.740Z,24.33
2018-06-01T02:43:50.921Z,25.57
2018-06-01T02:46:17.112Z,26.20
2018-06-01T02:48:43.336Z,28.00
2018-06-01T02:51:09.576Z,27.37
2018-06-01T02:53:35.789Z,27.43
2018-06-01T02:56:02.757Z,27.57
2018-06-01T02:58:28.961Z,26.83
2018-06-01T03:00:55.188Z,29.93
2018-06-01T03:03:22.108Z,27.67
2018-06-01T03:05:48.316Z,29.93
2018-06-01T03:08:14.559Z,31.03
2018-06-01T03:10:40.838Z,32.53
2018-06-01T03:13:07.064Z,31.27
2018-06-01T03:15:33.282Z,33.73
2018-06-01T03:17:59.506Z,34.07
2018-06-01T03:20:25.718Z,31.60
2018-06-01T03:22:51.920Z,34.67
2018-06-01T03:25:18.931Z,36.40
2018-06-01T03:27:45.148Z,35.73
2018-06-01T03:30:11.373Z,37.23
2018-06-01T03:32:37.596Z,37.80
2018-06-01T03:35:03.783Z,38.20
2018-06-01T03:37:29.972Z,40.93
2018-06-01T03:39:56.213Z,40.67
2018-06-01T03:42:22.405Z,39.93
2018-06-01T03:44:48.607Z,42.57
2018-06-01T03:47:15.592Z,43.37
2018-06-01T03:49:41.943Z,44.90
2018-06-01T03:52:08.360Z,46.43
2018-06-01T03:54:34.580Z,49.00
2018-06-01T03:57:00.832Z,46.30
2018-06-01T03:59:27.039Z,47.97
2018-06-01T04:01:53.356Z,44.87
2018-06-01T04:04:19.654Z,47.47
2018-06-01T04:06:46.632Z,44.03
2018-06-01T04:09:12.828Z,50.97
2018-06-01T04:11:39.776Z,55.30
2018-06-01T04:14:06.736Z,58.80
2018-06-01T04:16:32.949Z,54.20
2018-06-01T04:18:59.888Z,49.77
2018-06-01T04:21:26.124Z,49.20
2018-06-01T04:23:52.360Z,48.97
2018-06-01T04:26:18.609Z,54.97
2018-06-01T04:28:44.907Z,55.37
2018-06-01T04:31:11.870Z,53.87
2018-06-01T04:33:38.060Z,56.37
2018-06-01T04:36:04.302Z,57.13
2018-06-01T04:38:31.541Z,52.37
2018-06-01T04:40:57.997Z,55.27
2018-06-01T04:43:24.249Z,54.47
2018-06-01T04:45:50.459Z,57.23
2018-06-01T04:48:16.660Z,53.73
2018-06-01T04:50:42.859Z,53.20
2018-06-01T04:53:09.084Z,52.53
2018-06-01T04:55:35.318Z,56.87
2018-06-01T04:58:01.551Z,55.03
2018-06-01T05:00:28.530Z,57.37
2018-06-01T05:02:57.036Z,57.83
2018-06-01T05:05:27.325Z,58.80
2018-06-01T05:07:54.114Z,58.13
2018-06-01T05:10:20.314Z,64.07
2018-06-01T05:12:46.913Z,63.90
2018-06-01T05:15:13.103Z,72.07
2018-06-01T05:17:39.304Z,73.13
2018-06-01T05:20:05.500Z,79.00
2018-06-01T05:22:31.714Z,79.70
2018-06-01T05:24:59.068Z,82.20
2018-06-01T05:27:25.274Z,84.27
2018-06-01T05:29:51.480Z,92.97
2018-06-01T05:32:17.713Z,107.53
2018-06-01T05:34:43.921Z,108.73
2018-06-01T05:37:10.120Z,109.63
2018-06-01T05:39:36.340Z,108.70
2018-06-01T05:42:02.598Z,99.97
2018-06-01T05:44:28.843Z,98.07
2018-06-01T05:46:55.061Z,106.80
2018-06-01T05:49:21.281Z,106.90
2018-06-01T05:51:47.497Z,123.13
2018-06-01T05:54:13.718Z,106.60
2018-06-01T05:56:40.695Z,106.70
2018-06-01T05:59:06.916Z,103.00
2018-06-01T06:01:33.181Z,100.20
2018-06-01T06:03:59.408Z,103.57
2018-06-01T06:06:25.689Z,99.07
2018-06-01T06:08:51.899Z,102.53
2018-06-01T06:11:18.122Z,88.97
2018-06-01T06:13:45.077Z,91.00
2018-06-01T06:16:12.043Z,83.23
2018-06-01T06:18:38.257Z,88.40
2018-06-01T06:21:05.239Z,74.80
2018-06-01T06:23:31.463Z,79.47
2018-06-01T06:25:57.729Z,71.07
2018-06-01T06:28:23.958Z,79.87
2018-06-01T06:30:50.160Z,71.73
2018-06-01T06:33:16.372Z,75.03
2018-06-01T06:35:42.615Z,75.33
2018-06-01T06:38:08.910Z,72.57
2018-06-01T06:40:35.326Z,71.30
2018-06-01T06:43:02.279Z,73.00
2018-06-01T06:45:29.245Z,70.70
2018-06-01T06:47:55.489Z,88.80
2018-06-01T06:50:21.748Z,87.50
2018-06-01T06:52:47.966Z,82.10
2018-06-01T06:55:14.262Z,82.20
2018-06-01T06:57:40.409Z,90.33
2018-06-01T07:00:06.616Z,75.87
2018-06-01T07:02:32.871Z,80.43
2018-06-01T07:04:59.098Z,83.70
2018-06-01T07:07:25.332Z,85.87
2018-06-01T07:09:51.552Z,83.17
2018-06-01T07:12:17.758Z,80.30
2018-06-01T07:14:44.001Z,70.07
2018-06-01T07:17:10.216Z,80.23
2018-06-01T07:19:36.577Z,78.00
2018-06-01T07:22:02.884Z,73.63
2018-06-01T07:24:29.115Z,79.37
2018-06-01T07:26:55.324Z,76.30
2018-06-01T07:29:21.533Z,80.07
2018-06-01T07:31:47.776Z,86.50
2018-06-01T07:34:14.068Z,99.40
2018-06-01T07:36:40.361Z,97.93
2018-06-01T07:39:07.323Z,83.83
2018-06-01T07:41:33.579Z,92.13
2018-06-01T07:43:59.801Z,85.30
2018-06-01T07:46:26.029Z,83.27
2018-06-01T07:48:53.017Z,93.27
2018-06-01T07:51:19.247Z,84.73
2018-06-01T07:53:45.492Z,77.87
2018-06-01T07:56:11.688Z,96.23
2018-06-01T07:58:37.932Z,89.60
2018-06-01T08:01:04.176Z,86.23
2018-06-01T08:03:30.487Z,96.40
2018-06-01T08:05:57.491Z,99.33
2018-06-01T08:08:23.726Z,86.73
2018-06-01T08:10:49.945Z,90.77
2018-06-01T08:13:16.890Z,82.70
2018-06-01T08:15:43.836Z,78.83
2018-06-01T08:18:10.803Z,74.07
2018-06-01T08:20:37.003Z,69.67
2018-06-01T08:23:04.006Z,66.27
2018-06-01T08:25:30.234Z,70.03
2018-06-01T08:27:56.469Z,64.27
2018-06-01T08:30:22.737Z,62.30
2018-06-01T08:32:49.711Z,59.23
2018-06-01T08:35:15.884Z,61.40
2018-06-01T08:37:42.098Z,66.53
2018-06-01T08:40:08.328Z,68.57
2018-06-01T08:42:34.656Z,70.43
2018-06-01T08:45:00.892Z,74.00
2018-06-01T08:47:27.120Z,74.17
2018-06-01T08:49:53.317Z,82.17
2018-06-01T08:52:20.114Z,87.20
2018-06-01T08:54:46.520Z,99.80
2018-06-01T08:57:12.800Z,99.03
2018-06-01T08:59:38.980Z,124.23
2018-06-01T09:02:05.235Z,123.27
2018-06-01T09:04:31.468Z,105.87
2018-06-01T09:06:57.716Z,123.00
2018-06-01T09:09:23.936Z,112.73
2018-06-01T09:11:50.197Z,133.63
2018-06-01T09:14:16.408Z,98.33
2018-06-01T09:16:42.676Z,101.20
2018-06-01T09:19:09.092Z,111.57
2018-06-01T09:21:36.529Z,100.43
2018-06-01T09:24:05.396Z,106.40
2018-06-01T09:26:32.101Z,99.47
2018-06-01T09:28:58.361Z,100.50
2018-06-01T09:31:25.356Z,94.43
2018-06-01T09:33:51.611Z,102.83
2018-06-01T09:36:18.567Z,91.37
2018-06-01T09:38:45.872Z,97.40
2018-06-01T09:41:12.130Z,90.60
2018-06-01T09:43:38.688Z,110.43
2018-06-01T09:46:05.096Z,85.33
2018-06-01T09:48:31.340Z,86.13
2018-06-01T09:50:58.320Z,78.13
2018-06-01T09:53:24.525Z,80.97
2018-06-01T09:55:50.955Z,103.53
2018-06-01T09:58:17.908Z,78.13
2018-06-01T10:00:50.137Z,73.73
2018-06-01T10:03:17.118Z,71.37
2018-06-01T10:05:43.363Z,71.10
2018-06-01T10:08:09.570Z,67.93
2018-06-01T10:10:36.532Z,65.90
2018-06-01T10:13:02.784Z,65.07
2018-06-01T10:15:29.081Z,68.20
2018-06-01T10:17:55.296Z,66.57
2018-06-01T10:20:22.241Z,64.30
2018-06-01T10:22:48.452Z,54.77
2018-06-01T10:25:15.426Z,56.73
2018-06-01T10:27:41.645Z,58.43
2018-06-01T10:30:07.897Z,63.30
2018-06-01T10:32:34.141Z,65.53
2018-06-01T10:35:00.388Z,70.53
2018-06-01T10:37:26.605Z,69.00
2018-06-01T10:39:52.868Z,71.33
2018-06-01T10:42:19.816Z,72.97
2018-06-01T10:44:46.060Z,71.20
2018-06-01T10:47:12.289Z,74.10
2018-06-01T10:49:38.521Z,74.13
2018-06-01T10:52:05.251Z,74.27
2018-06-01T10:54:31.488Z,72.83
2018-06-01T10:56:57.720Z,71.00
2018-06-01T10:59:23.977Z,73.70
2018-06-01T11:01:50.246Z,72.87
2018-06-01T11:04:17.200Z,68.77
2018-06-01T11:06:43.431Z,68.50
2018-06-01T11:09:10.188Z,70.83
2018-06-01T11:11:36.384Z,67.67
2018-06-01T11:14:03.340Z,67.77
2018-06-01T11:16:29.557Z,66.03
2018-06-01T11:18:56.611Z,65.97
2018-06-01T11:21:22.822Z,70.90
2018-06-01T11:23:49.029Z,65.63
2018-06-01T11:26:15.236Z,67.27
2018-06-01T11:28:41.460Z,71.33
2018-06-01T11:31:08.403Z,69.93
2018-06-01T11:33:34.658Z,70.33
2018-06-01T11:36:00.855Z,71.67
2018-06-01T11:38:27.102Z,70.13
2018-06-01T11:40:53.330Z,70.43
2018-06-01T11:43:19.513Z,73.90
2018-06-01T11:45:45.740Z,69.00
2018-06-01T11:48:11.930Z,65.30
2018-06-01T11:50:38.205Z,62.70
2018-06-01T11:53:04.425Z,68.20
2018-06-01T11:55:30.757Z,73.97
2018-06-01T11:57:56.999Z,68.47
2018-06-01T12:00:23.217Z,68.57
2018-06-01T12:02:49.444Z,69.17
2018-06-01T12:05:15.655Z,67.93
2018-06-01T12:07:42.606Z,68.23
2018-06-01T12:10:08.937Z,66.40
2018-06-01T12:12:35.168Z,66.57
2018-06-01T12:15:01.390Z,68.37
2018-06-01T12:17:27.602Z,69.27
2018-06-01T12:19:54.835Z,66.73
2018-06-01T12:22:21.203Z,68.80
2018-06-01T12:24:47.536Z,68.13
2018-06-01T12:27:13.737Z,64.10
2018-06-01T12:29:40.695Z,66.40
2018-06-01T12:32:07.688Z,64.70
2018-06-01T12:34:33.919Z,66.00
2018-06-01T12:37:00.219Z,68.20
2018-06-01T12:39:26.505Z,61.70
2018-06-01T12:41:52.712Z,63.53
2018-06-01T12:44:19.016Z,64.57
2018-06-01T12:46:45.242Z,62.73
2018-06-01T12:49:11.478Z,62.23
2018-06-01T12:51:37.714Z,61.13
2018-06-01T12:54:04.731Z,62.77
2018-06-01T12:56:31.636Z,66.43
2018-06-01T12:58:57.955Z,63.73
2018-06-01T13:01:25.415Z,64.40
2018-06-01T13:03:51.705Z,63.73
2018-06-01T13:06:17.908Z,68.07
2018-06-01T13:08:44.261Z,67.27
2018-06-01T13:11:10.494Z,65.77
2018-06-01T13:13:36.738Z,70.60
2018-06-01T13:16:02.962Z,63.63
2018-06-01T13:18:29.376Z,63.47
2018-06-01T13:20:55.646Z,115.37
2018-06-01T13:23:21.886Z,66.47
2018-06-01T13:25:48.194Z,65.50
2018-06-01T13:28:14.443Z,63.03
2018-06-01T13:30:41.476Z,53.83
2018-06-01T13:33:07.685Z,51.93
2018-06-01T13:35:33.938Z,48.67
2018-06-01T13:38:00.203Z,48.13
2018-06-01T13:40:26.625Z,41.93
2018-06-01T13:42:52.916Z,41.67
2018-06-01T13:45:19.169Z,41.43
2018-06-01T13:47:46.122Z,40.13
2018-06-01T13:50:12.417Z,42.63
2018-06-01T13:52:38.640Z,43.17
2018-06-01T13:55:04.891Z,46.67
2018-06-01T13:57:31.140Z,43.97
2018-06-01T13:59:59.881Z,43.93
2018-06-01T14:02:26.206Z,43.17
2018-06-01T14:04:52.458Z,46.70
2018-06-01T14:07:18.673Z,46.77
2018-06-01T14:09:44.892Z,43.20
2018-06-01T14:12:11.249Z,44.83
2018-06-01T14:14:37.460Z,41.90
2018-06-01T14:17:03.720Z,42.17
2018-06-01T14:19:30.834Z,43.93
2018-06-01T14:21:57.082Z,49.67
2018-06-01T14:24:24.065Z,44.87
2018-06-01T14:26:50.321Z,43.97
2018-06-01T14:29:16.520Z,48.93
2018-06-01T14:31:42.747Z,49.30
2018-06-01T14:34:08.965Z,56.70
2018-06-01T14:36:35.204Z,59.57
2018-06-01T14:39:01.416Z,61.90
2018-06-01T14:41:28.403Z,61.80
2018-06-01T14:43:54.684Z,63.43
2018-06-01T14:46:21.644Z,64.77
2018-06-01T14:48:47.865Z,69.40
2018-06-01T14:51:14.746Z,69.37
2018-06-01T14:53:40.980Z,76.57
2018-06-01T14:56:07.750Z,72.37
2018-06-01T14:58:34.742Z,68.07
2018-06-01T15:01:01.050Z,74.83
2018-06-01T15:03:27.272Z,74.83
2018-06-01T15:05:54.239Z,78.17
2018-06-01T15:08:20.526Z,74.67
2018-06-01T15:10:46.742Z,73.90
2018-06-01T15:13:12.973Z,69.10
2018-06-01T15:15:39.216Z,70.40
2018-06-01T15:18:05.432Z,67.50
2018-06-01T15:20:31.690Z,69.17
2018-06-01T15:22:57.949Z,67.23
2018-06-01T15:25:24.156Z,66.03
2018-06-01T15:27:50.394Z,74.73
2018-06-01T15:30:16.648Z,67.57
2018-06-01T15:32:43.633Z,69.70
2018-06-01T15:35:10.633Z,68.73
2018-06-01T15:37:36.868Z,65.33
2018-06-01T15:40:03.095Z,65.23
2018-06-01T15:42:29.360Z,64.37
2018-06-01T15:44:56.323Z,60.70
2018-06-01T15:47:22.603Z,61.47
2018-06-01T15:49:48.876Z,59.87
2018-06-01T15:52:15.123Z,57.30
2018-06-01T15:54:41.321Z,61.20
2018-06-01T15:57:07.520Z,54.40
2018-06-01T15:59:33.767Z,55.87
2018-06-01T16:02:00.759Z,53.73
2018-06-01T16:04:26.993Z,53.57
2018-06-01T16:06:53.319Z,51.30
2018-06-01T16:09:19.817Z,49.23
2018-06-01T16:11:46.110Z,45.63
2018-06-01T16:14:12.557Z,46.03
2018-06-01T16:16:38.812Z,44.60
2018-06-01T16:19:05.004Z,42.10
2018-06-01T16:21:31.253Z,41.80
2018-06-01T16:23:57.516Z,39.97
2018-06-01T16:26:23.784Z,40.10
2018-06-01T16:28:50.121Z,40.93
2018-06-01T16:31:16.326Z,39.33
2018-06-01T16:33:42.613Z,40.07
2018-06-01T16:36:11.524Z,38.90
2018-06-01T16:38:37.726Z,37.57
2018-06-01T16:41:04.173Z,38.00
2018-06-01T16:43:30.419Z,37.97
2018-06-01T16:45:57.733Z,35.80
2018-06-01T16:48:24.044Z,36.50
2018-06-01T16:50:50.312Z,37.73
2018-06-01T16:53:16.509Z,35.93
2018-06-01T16:55:44.440Z,35.33
2018-06-01T16:58:10.725Z,33.17
2018-06-01T17:00:37.743Z,33.90
2018-06-01T17:03:05.079Z,34.37
2018-06-01T17:05:31.356Z,32.40
2018-06-01T17:07:57.613Z,32.63
2018-06-01T17:10:23.860Z,32.37
2018-06-01T17:12:51.558Z,32.50
2018-06-01T17:15:18.548Z,30.30
2018-06-01T17:17:44.825Z,32.20
2018-06-01T17:20:11.108Z,27.97
2018-06-01T17:22:37.354Z,27.37
2018-06-01T17:25:03.603Z,27.83
2018-06-01T17:27:30.609Z,29.40
2018-06-01T17:29:56.837Z,28.17
2018-06-01T17:32:23.036Z,31.13
2018-06-01T17:34:49.319Z,28.70
2018-06-01T17:37:15.540Z,24.97
2018-06-01T17:39:41.746Z,24.20
2018-06-01T17:42:08.041Z,25.13
2018-06-01T17:44:34.241Z,27.67
2018-06-01T17:47:00.474Z,28.30
2018-06-01T17:49:26.739Z,24.43
2018-06-01T17:51:53.029Z,24.93
2018-06-01T17:54:19.270Z,26.43
2018-06-01T17:56:46.253Z,27.10
2018-06-01T17:59:12.530Z,26.33
2018-06-01T18:01:38.816Z,28.60
2018-06-01T18:04:05.092Z,28.60
2018-06-01T18:06:31.377Z,26.33
2018-06-01T18:08:57.640Z,25.57
2018-06-01T18:11:25.356Z,25.43
2018-06-01T18:13:51.599Z,26.13
2018-06-01T18:16:17.832Z,26.97
2018-06-01T18:18:44.107Z,27.87
2018-06-01T18:21:12.372Z,25.77
2018-06-01T18:23:39.345Z,27.97
2018-06-01T18:26:05.580Z,29.10
2018-06-01T18:28:33.596Z,25.63
2018-06-01T18:30:59.836Z,27.83
2018-06-01T18:33:26.041Z,27.27
2018-06-01T18:35:52.561Z,28.50
2018-06-01T18:38:18.819Z,28.53
2018-06-01T18:40:45.894Z,29.90
2018-06-01T18:43:12.888Z,29.83
2018-06-01T18:45:39.110Z,31.17
2018-06-01T18:48:05.349Z,31.93
2018-06-01T18:50:31.616Z,30.83
2018-06-01T18:52:58.623Z,31.43
2018-06-01T18:55:24.829Z,32.93
2018-06-01T18:57:51.080Z,32.27
2018-06-01T19:00:17.348Z,31.13
2018-06-01T19:02:44.307Z,32.03
2018-06-01T19:05:11.263Z,29.80
2018-06-01T19:07:37.485Z,28.53
2018-06-01T19:10:03.733Z,30.23
2018-06-01T19:12:29.942Z,29.90
2018-06-01T19:14:57.049Z,30.63
2018-06-01T19:17:24.573Z,30.03
2018-06-01T19:19:50.793Z,31.23
2018-06-01T19:22:17.054Z,30.63
2018-06-01T19:24:43.301Z,32.27
2018-06-01T19:27:09.533Z,32.07
2018-06-01T19:29:36.504Z,30.17
2018-06-01T19:32:02.728Z,31.20
2018-06-01T19:34:29.568Z,31.13
2018-06-01T19:36:55.855Z,31.07
2018-06-01T19:39:22.125Z,32.63
2018-06-01T19:41:48.360Z,33.20
2018-06-01T19:44:14.629Z,33.00
2018-06-01T19:46:40.960Z,34.67
2018-06-01T19:49:07.186Z,35.30
2018-06-01T19:51:33.393Z,37.73
2018-06-01T19:53:59.710Z,35.97
2018-06-01T19:56:25.972Z,38.17
2018-06-01T19:58:52.237Z,36.43
2018-06-01T20:01:18.489Z,39.20
2018-06-01T20:03:44.729Z,38.33
2018-06-01T20:06:11.408Z,40.10
2018-06-01T20:08:37.640Z,43.80
2018-06-01T20:11:03.918Z,42.77
2018-06-01T20:13:32.941Z,44.47
2018-06-01T20:15:59.518Z,44.50
2018-06-01T20:18:25.739Z,42.90
2018-06-01T20:20:52.712Z,41.27
2018-06-01T20:23:18.941Z,47.10
2018-06-01T20:25:46.080Z,43.90
2018-06-01T20:28:12.363Z,47.80
2018-06-01T20:30:38.853Z,47.07
2018-06-01T20:33:06.026Z,47.70
2018-06-01T20:35:32.287Z,45.33
2018-06-01T20:37:59.295Z,42.20
2018-06-01T20:40:25.503Z,46.87
2018-06-01T20:42:51.748Z,49.83
2018-06-01T20:45:17.977Z,49.37
2018-06-01T20:47:45.138Z,47.17
2018-06-01T20:50:11.382Z,51.27
2018-06-01T20:52:37.660Z,49.33
2018-06-01T20:55:04.701Z,48.97
2018-06-01T20:57:31.685Z,52.03
2018-06-01T20:59:57.923Z,51.23
2018-06-01T21:02:24.186Z,49.60
2018-06-01T21:04:51.190Z,48.53
2018-06-01T21:07:17.414Z,50.93
2018-06-01T21:09:43.708Z,51.50
2018-06-01T21:12:10.026Z,53.97
2018-06-01T21:14:36.304Z,52.47
2018-06-01T21:17:02.578Z,52.97
2018-06-01T21:19:29.558Z,53.67
2018-06-01T21:21:55.834Z,55.50
2018-06-01T21:24:22.046Z,53.23
2018-06-01T21:26:48.295Z,55.77
2018-06-01T21:29:16.748Z,56.57
2018-06-01T21:31:42.965Z,59.73
2018-06-01T21:34:09.223Z,58.57
2018-06-01T21:36:35.493Z,55.07
2018-06-01T21:39:01.741Z,56.37
2018-06-01T21:41:27.971Z,57.53
2018-06-01T21:43:54.232Z,58.87
2018-06-01T21:46:20.478Z,56.57
2018-06-01T21:48:47.477Z,56.93
2018-06-01T21:51:15.112Z,58.70
2018-06-01T21:53:41.368Z,57.17
2018-06-01T21:56:07.594Z,58.73
2018-06-01T21:58:33.816Z,61.73
2018-06-01T22:01:00.056Z,63.10
2018-06-01T22:03:26.279Z,61.20
2018-06-01T22:05:52.535Z,62.33
2018-06-01T22:08:18.874Z,60.90
2018-06-01T22:10:45.835Z,61.40
2018-06-01T22:13:12.934Z,63.17
2018-06-01T22:15:39.149Z,56.47
2018-06-01T22:18:05.369Z,58.70
2018-06-01T22:20:31.576Z,62.20
2018-06-01T22:22:59.053Z,55.90
2018-06-01T22:25:25.409Z,52.17
2018-06-01T22:27:51.882Z,56.87
2018-06-01T22:30:18.857Z,55.53
2018-06-01T22:32:45.153Z,48.80
2018-06-01T22:35:12.116Z,55.83
2018-06-01T22:37:39.042Z,51.13
2018-06-01T22:40:05.992Z,51.27
2018-06-01T22:42:32.944Z,50.00
2018-06-01T22:44:59.948Z,48.43
2018-06-01T22:47:26.189Z,46.83
2018-06-01T22:49:52.391Z,48.13
2018-06-01T22:52:18.633Z,48.40
2018-06-01T22:54:44.849Z,50.43
2018-06-01T22:57:11.988Z,52.50
2018-06-01T22:59:38.180Z,51.17
2018-06-01T23:02:05.202Z,53.43
2018-06-01T23:04:31.453Z,51.87
2018-06-01T23:06:58.469Z,53.13
2018-06-01T23:09:24.675Z,52.60
2018-06-01T23:11:50.914Z,59.07
2018-06-01T23:14:17.145Z,56.17
2018-06-01T23:16:43.360Z,59.30
2018-06-01T23:19:09.643Z,60.20
2018-06-01T23:21:36.601Z,62.57
2018-06-01T23:24:02.852Z,58.30
2018-06-01T23:26:29.896Z,64.90
2018-06-01T23:28:56.138Z,66.37
2018-06-01T23:31:22.443Z,69.07
2018-06-01T23:33:48.667Z,70.87
2018-06-01T23:36:14.887Z,72.87
2018-06-01T23:38:41.156Z,68.20
2018-06-01T23:41:07.440Z,73.63
2018-06-01T23:43:33.678Z,74.97
2018-06-01T23:45:59.916Z,75.27
2018-06-01T23:48:26.165Z,84.47
2018-06-01T23:50:52.420Z,77.07
2018-06-01T23:53:18.644Z,82.77
2018-06-01T23:55:44.862Z,86.13
2018-06-01T23:58:11.861Z,88.17
